New Nada — 3ELP9 — position and weather

sailwx.info

Track history (hours):
 
Tides and Currents Weather Stations Pressure Air Temp Water Temp Dewpoint Dewpoint Depression Visibility Wind Speed Wind Dir Waves Ship Positions

New Nada

Last reported at 2017-Aug-12 23:34 UTC. Time now 2017-Aug-17 19:08 UTC.
Position N 38°27' W 128°36'.

Length 180 m; beam 32.2 m.

Type: Cargo ship. MMSI: 356005000.

Date/timePositionNaut miles runAvg speedWind from/ knotsBaromVisibWave heightAir tempDewpointWater temp
2017-Aug-12 23:34N 38°27' W 128°36'14615.2
2017-Aug-12 14:00N 38°10' W 125°32'916.8
2017-Aug-12 13:29N 38°10' W 125°21'816.6
2017-Aug-12 13:00N 38°10' W 125°10'816.6
2017-Aug-12 12:30N 38°10' W 124°60'916.7
2017-Aug-12 11:59N 38°10' W 124°49'816.3
2017-Aug-12 11:30N 38°10' W 124°39'815.8
2017-Aug-12 11:00N 38°10' W 124°29'815.8
2017-Aug-12 10:30N 38°10' W 124°19'815.9
2017-Aug-12 10:00N 38°10' W 124°09'816.4
2017-Aug-12 09:30N 38°10' W 123°58'816.0
2017-Aug-12 09:00N 38°10' W 123°48'816.2
2017-Aug-12 08:30N 38°10' W 123°38'815.7
2017-Aug-12 08:00N 38°10' W 123°28'714.1
2017-Aug-12 07:30N 38°08' W 123°19'714.2
2017-Aug-12 07:00N 38°03' W 123°13'713.3
2017-Aug-12 06:30N 37°58' W 123°07'713.1
2017-Aug-12 06:00N 37°55' W 123°00'713.5
2017-Aug-12 05:30N 37°51' W 122°53'613.0
2017-Aug-12 05:00N 37°48' W 122°46'5 9.1
2017-Aug-12 04:30N 37°46' W 122°41'612.3
2017-Aug-12 04:00N 37°47' W 122°33'713.5
2017-Aug-12 03:30N 37°51' W 122°26'713.5
2017-Aug-12 03:00N 37°57' W 122°27'714.5
2017-Aug-12 02:30N 38°03' W 122°20'612.7
2017-Aug-12 02:00N 38°04' W 122°12'3 0.2
2017-Aug-11 08:42N 38°02' W 122°08'0 0.4
2017-Aug-11 08:30N 38°02' W 122°08'5 7.8
2017-Aug-11 07:49N 38°04' W 122°15'413.1
2017-Aug-11 07:31N 38°03' W 122°20'713.5
2017-Aug-11 07:00N 37°58' W 122°26'612.4
2017-Aug-11 06:31N 37°52' W 122°25'4 7.1
2017-Aug-11 06:01N 37°49' W 122°27'612.6
2017-Aug-11 05:30N 37°47' W 122°34'510.5
2017-Aug-11 05:01N 37°45' W 122°40'3 6.7
2017-Aug-11 04:30N 37°41' W 122°39'3 5.4
2017-Aug-11 04:01N 37°39' W 122°40'4 8.3
2017-Aug-11 03:31N 37°35' W 122°40'4 7.0
2017-Aug-11 03:01N 37°31' W 122°40'3 6.8
2017-Aug-11 02:31N 37°28' W 122°40'5 9.2
2017-Aug-11 02:01N 37°23' W 122°40'5 9.1
2017-Aug-11 01:30N 37°19' W 122°40'5 9.3
2017-Aug-11 01:01N 37°14' W 122°39'713.6
2017-Aug-11 00:31N 37°07' W 122°38'815.7
2017-Aug-11 00:00N 36°60' W 122°35'815.8
2017-Aug-10 23:30N 36°52' W 122°32'815.8
2017-Aug-10 23:00N 36°45' W 122°29'8416.4
2017-Aug-10 17:54N 35°31' W 121°39'615.7
2017-Aug-10 17:29N 35°26' W 121°35'815.8
2017-Aug-10 17:00N 35°19' W 121°30'816.1
2017-Aug-10 16:30N 35°12' W 121°25'815.9
2017-Aug-10 16:00N 35°05' W 121°20'815.8
2017-Aug-10 15:30N 34°59' W 121°15'816.3
2017-Aug-10 15:00N 34°52' W 121°10'816.1
2017-Aug-10 14:31N 34°45' W 121°05'816.0
2017-Aug-10 14:00N 34°38' W 121°00'815.6
2017-Aug-10 13:30N 34°31' W 120°55'714.2
2017-Aug-10 13:00N 34°26' W 120°50'815.7
2017-Aug-10 12:30N 34°24' W 120°40'815.8
2017-Aug-10 12:00N 34°21' W 120°31'816.3
2017-Aug-10 11:30N 34°19' W 120°22'816.2
2017-Aug-10 11:00N 34°17' W 120°12'816.0
2017-Aug-10 10:31N 34°15' W 120°03'816.1
2017-Aug-10 10:00N 34°13' W 119°54'915.6
2017-Aug-10 09:26N 34°11' W 119°43'715.4
2017-Aug-10 09:00N 34°09' W 119°36'815.7
2017-Aug-10 08:31N 34°07' W 119°27'816.3
2017-Aug-10 08:01N 34°05' W 119°17'714.3
2017-Aug-10 07:30N 34°01' W 119°09'612.2
2017-Aug-10 07:01N 33°58' W 119°03'510.3
2017-Aug-10 06:30N 33°56' W 118°58'510.0
2017-Aug-10 06:01N 33°53' W 118°52'5 9.5
2017-Aug-10 05:31N 33°51' W 118°47'5 9.8
2017-Aug-10 05:00N 33°49' W 118°42'510.0
2017-Aug-10 04:30N 33°46' W 118°37'510.3
2017-Aug-10 04:00N 33°43' W 118°32'510.4
2017-Aug-10 03:31N 33°41' W 118°26'510.0
2017-Aug-10 03:01N 33°38' W 118°21'5 9.3
2017-Aug-10 02:30N 33°38' W 118°15'4 8.0
2017-Aug-10 02:01N 33°41' W 118°11'4 8.4
2017-Aug-10 01:30N 33°45' W 118°13'2 3.3
2017-Aug-10 01:01N 33°46' W 118°13'0 0.0
2017-Aug-10 00:28N 33°46' W 118°13'0 0.0
2017-Aug-09 23:55N 33°46' W 118°13'0 0.0
2017-Aug-09 23:31N 33°46' W 118°13'0 0.0
2017-Aug-09 23:01N 33°46' W 118°13'0 0.0
2017-Aug-09 22:31N 33°46' W 118°13'0 0.0
2017-Aug-09 21:58N 33°46' W 118°13'0 0.0
2017-Aug-09 21:31N 33°46' W 118°13'0 0.0
2017-Aug-09 21:01N 33°46' W 118°13'0 0.0
2017-Aug-09 20:31N 33°46' W 118°13'0 0.0
2017-Aug-09 20:01N 33°46' W 118°13'0 0.0
2017-Aug-09 19:31N 33°46' W 118°13'0 0.0
2017-Aug-09 19:01N 33°46' W 118°13'0 0.0
2017-Aug-09 18:31N 33°46' W 118°13'0 0.0
2017-Aug-09 18:01N 33°46' W 118°13'0 0.0
2017-Aug-09 17:31N 33°46' W 118°13'0 0.0
2017-Aug-09 17:01N 33°46' W 118°13'0 0.0
2017-Aug-09 16:31N 33°46' W 118°13'0 0.0
2017-Aug-09 15:55N 33°46' W 118°13'0 0.0
2017-Aug-09 15:25N 33°46' W 118°13'0 0.0
2017-Aug-09 15:01N 33°46' W 118°13'0 0.0
2017-Aug-09 14:31N 33°46' W 118°13'0 0.0
2017-Aug-09 13:58N 33°46' W 118°13'0 0.0
2017-Aug-09 13:28N 33°46' W 118°13'0 0.0
2017-Aug-09 13:01N 33°46' W 118°13'0 0.1
2017-Aug-09 12:30N 33°46' W 118°13'1 1.3
2017-Aug-09 12:00N 33°46' W 118°13'1 1.9
2017-Aug-09 11:31N 33°45' W 118°13'3 6.8
2017-Aug-09 11:00N 33°42' W 118°11'4 7.4
2017-Aug-09 10:30N 33°38' W 118°11'3 6.8
2017-Aug-09 10:00N 33°37' W 118°14'4 7.8
2017-Aug-09 09:30N 33°36' W 118°19'4 7.6
2017-Aug-09 09:00N 33°37' W 118°23'510.0
2017-Aug-09 08:30N 33°40' W 118°28'5 9.7
2017-Aug-09 08:00N 33°42' W 118°33'5 9.7
2017-Aug-09 07:30N 33°45' W 118°38'5 9.6
2017-Aug-09 07:00N 33°47' W 118°43'5 9.4
2017-Aug-09 06:30N 33°49' W 118°48'5 9.9
2017-Aug-09 06:00N 33°52' W 118°54'5 9.8
2017-Aug-09 05:30N 33°54' W 118°59'5 9.3
2017-Aug-09 05:00N 33°56' W 119°04'611.4
2017-Aug-09 04:30N 33°59' W 119°10'714.8
2017-Aug-09 04:00N 34°03' W 119°17'816.5
2017-Aug-09 03:30N 34°05' W 119°27'816.7
2017-Aug-09 03:00N 34°07' W 119°37'917.0
2017-Aug-09 02:30N 34°09' W 119°47'916.9
2017-Aug-09 02:00N 34°12' W 119°57'817.1
2017-Aug-09 01:30N 34°14' W 120°06'817.1
2017-Aug-09 01:00N 34°16' W 120°16'816.6
2017-Aug-09 00:30N 34°18' W 120°26'816.1
2017-Aug-09 00:00N 34°21' W 120°36'816.9
2017-Aug-08 23:30N 34°23' W 120°45'817.0
2017-Aug-08 23:00N 34°25' W 120°55'917.1
2017-Aug-08 22:30N 34°25' W 121°06'816.8
2017-Aug-08 22:00N 34°25' W 121°16'816.7
2017-Aug-08 21:30N 34°25' W 121°26'916.8
2017-Aug-08 20:59N 34°25' W 121°37'816.4
2017-Aug-08 20:28N 34°25' W 121°47'715.9
2017-Aug-08 20:00N 34°25' W 121°56'916.0
2017-Aug-08 19:25N 34°25' W 122°07'716.1
2017-Aug-08 18:59N 34°25' W 122°16'816.6
2017-Aug-08 18:30N 34°25' W 122°25'1114.1
2017-Aug-08 17:44N 34°25' W 122°39'1 5.2
2017-Aug-08 17:29N 34°25' W 122°40'3 7.1
2017-Aug-08 17:00N 34°25' W 122°44'814.9
2017-Aug-08 16:26N 34°25' W 122°55'716.3
2017-Aug-08 16:01N 34°25' W 123°03'816.3
2017-Aug-08 15:30N 34°25' W 123°13'916.1
2017-Aug-08 14:58N 34°25' W 123°23'916.3
2017-Aug-08 14:26N 34°25' W 123°34'716.2
2017-Aug-08 14:01N 34°25' W 123°42'37215.5
2017-Aug-07 14:05N 37°03' W 130°37'517.4
2017-Aug-07 13:49N 37°05' W 130°42'917.1
2017-Aug-07 13:19N 37°10' W 130°51'617.4
2017-Aug-07 12:59N 37°13' W 130°57'1117.2
2017-Aug-07 12:21N 37°19' W 131°08'617.1
2017-Aug-07 12:00N 37°22' W 131°15'817.0
2017-Aug-07 11:30N 37°26' W 131°24'917.1
2017-Aug-07 11:00N 37°30' W 131°34'917.1
2017-Aug-07 10:30N 37°34' W 131°43'917.3
2017-Aug-07 10:00N 37°38' W 131°53'817.1
2017-Aug-07 09:30N 37°42' W 132°02'1017.0
2017-Aug-07 08:56N 37°47' W 132°13'716.9
2017-Aug-07 08:30N 37°51' W 132°21'817.0
2017-Aug-07 08:00N 37°55' W 132°30'917.2
2017-Aug-07 07:30N 37°59' W 132°40'816.9
2017-Aug-07 07:00N 38°03' W 132°49'816.8
2017-Aug-07 06:30N 38°07' W 132°58'916.8
2017-Aug-07 06:00N 38°11' W 133°08'816.9
2017-Aug-07 05:30N 38°15' W 133°18'916.6
2017-Aug-07 04:56N 38°19' W 133°28'716.6
2017-Aug-07 04:30N 38°23' W 133°36'816.5
2017-Aug-07 04:00N 38°26' W 133°45'1016.8
2017-Aug-07 03:25N 38°31' W 133°57'716.5
2017-Aug-07 02:59N 38°34' W 134°05'1716.5
2017-Aug-07 01:56N 38°42' W 134°25'1416.7
2017-Aug-07 01:06N 38°49' W 134°40'216.5
2017-Aug-07 01:00N 38°50' W 134°42'816.8
2017-Aug-07 00:30N 38°54' W 134°51'816.7
2017-Aug-07 00:00N 38°58' W 135°01'1016.6
2017-Aug-06 23:25N 39°02' W 135°12'  
Track history (hours):
 
Tides and Currents Weather Stations Pressure Air Temp Water Temp Dewpoint Dewpoint Depression Visibility Wind Speed Wind Dir Waves Ship Positions

New Nada

Last reported at 2017-Aug-12 23:34 UTC. Time now 2017-Aug-17 19:08 UTC.
Position N 38°27' W 128°36'.

Length 180 m; beam 32.2 m.

Type: Cargo ship. MMSI: 356005000.

Date/timePositionNaut miles runAvg speedWind from/ knotsBaromVisibWave heightAir tempDewpointWater temp
2017-Aug-12 23:34N 38°27' W 128°36'14615.2
2017-Aug-12 14:00N 38°10' W 125°32'916.8
2017-Aug-12 13:29N 38°10' W 125°21'816.6
2017-Aug-12 13:00N 38°10' W 125°10'816.6
2017-Aug-12 12:30N 38°10' W 124°60'916.7
2017-Aug-12 11:59N 38°10' W 124°49'816.3
2017-Aug-12 11:30N 38°10' W 124°39'815.8
2017-Aug-12 11:00N 38°10' W 124°29'815.8
2017-Aug-12 10:30N 38°10' W 124°19'815.9
2017-Aug-12 10:00N 38°10' W 124°09'816.4
2017-Aug-12 09:30N 38°10' W 123°58'816.0
2017-Aug-12 09:00N 38°10' W 123°48'816.2
2017-Aug-12 08:30N 38°10' W 123°38'815.7
2017-Aug-12 08:00N 38°10' W 123°28'714.1
2017-Aug-12 07:30N 38°08' W 123°19'714.2
2017-Aug-12 07:00N 38°03' W 123°13'713.3
2017-Aug-12 06:30N 37°58' W 123°07'713.1
2017-Aug-12 06:00N 37°55' W 123°00'713.5
2017-Aug-12 05:30N 37°51' W 122°53'613.0
2017-Aug-12 05:00N 37°48' W 122°46'5 9.1
2017-Aug-12 04:30N 37°46' W 122°41'612.3
2017-Aug-12 04:00N 37°47' W 122°33'713.5
2017-Aug-12 03:30N 37°51' W 122°26'713.5
2017-Aug-12 03:00N 37°57' W 122°27'714.5
2017-Aug-12 02:30N 38°03' W 122°20'612.7
2017-Aug-12 02:00N 38°04' W 122°12'3 0.2
2017-Aug-11 08:42N 38°02' W 122°08'0 0.4
2017-Aug-11 08:30N 38°02' W 122°08'5 7.8
2017-Aug-11 07:49N 38°04' W 122°15'413.1
2017-Aug-11 07:31N 38°03' W 122°20'713.5
2017-Aug-11 07:00N 37°58' W 122°26'612.4
2017-Aug-11 06:31N 37°52' W 122°25'4 7.1
2017-Aug-11 06:01N 37°49' W 122°27'612.6
2017-Aug-11 05:30N 37°47' W 122°34'510.5
2017-Aug-11 05:01N 37°45' W 122°40'3 6.7
2017-Aug-11 04:30N 37°41' W 122°39'3 5.4
2017-Aug-11 04:01N 37°39' W 122°40'4 8.3
2017-Aug-11 03:31N 37°35' W 122°40'4 7.0
2017-Aug-11 03:01N 37°31' W 122°40'3 6.8
2017-Aug-11 02:31N 37°28' W 122°40'5 9.2
2017-Aug-11 02:01N 37°23' W 122°40'5 9.1
2017-Aug-11 01:30N 37°19' W 122°40'5 9.3
2017-Aug-11 01:01N 37°14' W 122°39'713.6
2017-Aug-11 00:31N 37°07' W 122°38'815.7
2017-Aug-11 00:00N 36°60' W 122°35'815.8
2017-Aug-10 23:30N 36°52' W 122°32'815.8
2017-Aug-10 23:00N 36°45' W 122°29'8416.4
2017-Aug-10 17:54N 35°31' W 121°39'615.7
2017-Aug-10 17:29N 35°26' W 121°35'815.8
2017-Aug-10 17:00N 35°19' W 121°30'816.1
2017-Aug-10 16:30N 35°12' W 121°25'815.9
2017-Aug-10 16:00N 35°05' W 121°20'815.8
2017-Aug-10 15:30N 34°59' W 121°15'816.3
2017-Aug-10 15:00N 34°52' W 121°10'816.1
2017-Aug-10 14:31N 34°45' W 121°05'816.0
2017-Aug-10 14:00N 34°38' W 121°00'815.6
2017-Aug-10 13:30N 34°31' W 120°55'714.2
2017-Aug-10 13:00N 34°26' W 120°50'815.7
2017-Aug-10 12:30N 34°24' W 120°40'815.8
2017-Aug-10 12:00N 34°21' W 120°31'816.3
2017-Aug-10 11:30N 34°19' W 120°22'816.2
2017-Aug-10 11:00N 34°17' W 120°12'816.0
2017-Aug-10 10:31N 34°15' W 120°03'816.1
2017-Aug-10 10:00N 34°13' W 119°54'915.6
2017-Aug-10 09:26N 34°11' W 119°43'715.4
2017-Aug-10 09:00N 34°09' W 119°36'815.7
2017-Aug-10 08:31N 34°07' W 119°27'816.3
2017-Aug-10 08:01N 34°05' W 119°17'714.3
2017-Aug-10 07:30N 34°01' W 119°09'612.2
2017-Aug-10 07:01N 33°58' W 119°03'510.3
2017-Aug-10 06:30N 33°56' W 118°58'510.0
2017-Aug-10 06:01N 33°53' W 118°52'5 9.5
2017-Aug-10 05:31N 33°51' W 118°47'5 9.8
2017-Aug-10 05:00N 33°49' W 118°42'510.0
2017-Aug-10 04:30N 33°46' W 118°37'510.3
2017-Aug-10 04:00N 33°43' W 118°32'510.4
2017-Aug-10 03:31N 33°41' W 118°26'510.0
2017-Aug-10 03:01N 33°38' W 118°21'5 9.3
2017-Aug-10 02:30N 33°38' W 118°15'4 8.0
2017-Aug-10 02:01N 33°41' W 118°11'4 8.4
2017-Aug-10 01:30N 33°45' W 118°13'2 3.3
2017-Aug-10 01:01N 33°46' W 118°13'0 0.0
2017-Aug-10 00:28N 33°46' W 118°13'0 0.0
2017-Aug-09 23:55N 33°46' W 118°13'0 0.0
2017-Aug-09 23:31N 33°46' W 118°13'0 0.0
2017-Aug-09 23:01N 33°46' W 118°13'0 0.0
2017-Aug-09 22:31N 33°46' W 118°13'0 0.0
2017-Aug-09 21:58N 33°46' W 118°13'0 0.0
2017-Aug-09 21:31N 33°46' W 118°13'0 0.0
2017-Aug-09 21:01N 33°46' W 118°13'0 0.0
2017-Aug-09 20:31N 33°46' W 118°13'0 0.0
2017-Aug-09 20:01N 33°46' W 118°13'0 0.0
2017-Aug-09 19:31N 33°46' W 118°13'0 0.0
2017-Aug-09 19:01N 33°46' W 118°13'0 0.0
2017-Aug-09 18:31N 33°46' W 118°13'0 0.0
2017-Aug-09 18:01N 33°46' W 118°13'0 0.0
2017-Aug-09 17:31N 33°46' W 118°13'0 0.0
2017-Aug-09 17:01N 33°46' W 118°13'0 0.0
2017-Aug-09 16:31N 33°46' W 118°13'0 0.0
2017-Aug-09 15:55N 33°46' W 118°13'0 0.0
2017-Aug-09 15:25N 33°46' W 118°13'0 0.0
2017-Aug-09 15:01N 33°46' W 118°13'0 0.0
2017-Aug-09 14:31N 33°46' W 118°13'0 0.0
2017-Aug-09 13:58N 33°46' W 118°13'0 0.0
2017-Aug-09 13:28N 33°46' W 118°13'0 0.0
2017-Aug-09 13:01N 33°46' W 118°13'0 0.1
2017-Aug-09 12:30N 33°46' W 118°13'1 1.3
2017-Aug-09 12:00N 33°46' W 118°13'1 1.9
2017-Aug-09 11:31N 33°45' W 118°13'3 6.8
2017-Aug-09 11:00N 33°42' W 118°11'4 7.4
2017-Aug-09 10:30N 33°38' W 118°11'3 6.8
2017-Aug-09 10:00N 33°37' W 118°14'4 7.8
2017-Aug-09 09:30N 33°36' W 118°19'4 7.6
2017-Aug-09 09:00N 33°37' W 118°23'510.0
2017-Aug-09 08:30N 33°40' W 118°28'5 9.7
2017-Aug-09 08:00N 33°42' W 118°33'5 9.7
2017-Aug-09 07:30N 33°45' W 118°38'5 9.6
2017-Aug-09 07:00N 33°47' W 118°43'5 9.4
2017-Aug-09 06:30N 33°49' W 118°48'5 9.9
2017-Aug-09 06:00N 33°52' W 118°54'5 9.8
2017-Aug-09 05:30N 33°54' W 118°59'5 9.3
2017-Aug-09 05:00N 33°56' W 119°04'611.4
2017-Aug-09 04:30N 33°59' W 119°10'714.8
2017-Aug-09 04:00N 34°03' W 119°17'816.5
2017-Aug-09 03:30N 34°05' W 119°27'816.7
2017-Aug-09 03:00N 34°07' W 119°37'917.0
2017-Aug-09 02:30N 34°09' W 119°47'916.9
2017-Aug-09 02:00N 34°12' W 119°57'817.1
2017-Aug-09 01:30N 34°14' W 120°06'817.1
2017-Aug-09 01:00N 34°16' W 120°16'816.6
2017-Aug-09 00:30N 34°18' W 120°26'816.1
2017-Aug-09 00:00N 34°21' W 120°36'816.9
2017-Aug-08 23:30N 34°23' W 120°45'817.0
2017-Aug-08 23:00N 34°25' W 120°55'917.1
2017-Aug-08 22:30N 34°25' W 121°06'816.8
2017-Aug-08 22:00N 34°25' W 121°16'816.7
2017-Aug-08 21:30N 34°25' W 121°26'916.8
2017-Aug-08 20:59N 34°25' W 121°37'816.4
2017-Aug-08 20:28N 34°25' W 121°47'715.9
2017-Aug-08 20:00N 34°25' W 121°56'916.0
2017-Aug-08 19:25N 34°25' W 122°07'716.1
2017-Aug-08 18:59N 34°25' W 122°16'816.6
2017-Aug-08 18:30N 34°25' W 122°25'1114.1
2017-Aug-08 17:44N 34°25' W 122°39'1 5.2
2017-Aug-08 17:29N 34°25' W 122°40'3 7.1
2017-Aug-08 17:00N 34°25' W 122°44'814.9
2017-Aug-08 16:26N 34°25' W 122°55'716.3
2017-Aug-08 16:01N 34°25' W 123°03'816.3
2017-Aug-08 15:30N 34°25' W 123°13'916.1
2017-Aug-08 14:58N 34°25' W 123°23'916.3
2017-Aug-08 14:26N 34°25' W 123°34'716.2
2017-Aug-08 14:01N 34°25' W 123°42'37215.5
2017-Aug-07 14:05N 37°03' W 130°37'517.4
2017-Aug-07 13:49N 37°05' W 130°42'917.1
2017-Aug-07 13:19N 37°10' W 130°51'617.4
2017-Aug-07 12:59N 37°13' W 130°57'1117.2
2017-Aug-07 12:21N 37°19' W 131°08'617.1
2017-Aug-07 12:00N 37°22' W 131°15'817.0
2017-Aug-07 11:30N 37°26' W 131°24'917.1
2017-Aug-07 11:00N 37°30' W 131°34'917.1
2017-Aug-07 10:30N 37°34' W 131°43'917.3
2017-Aug-07 10:00N 37°38' W 131°53'817.1
2017-Aug-07 09:30N 37°42' W 132°02'1017.0
2017-Aug-07 08:56N 37°47' W 132°13'716.9
2017-Aug-07 08:30N 37°51' W 132°21'817.0
2017-Aug-07 08:00N 37°55' W 132°30'917.2
2017-Aug-07 07:30N 37°59' W 132°40'816.9
2017-Aug-07 07:00N 38°03' W 132°49'816.8
2017-Aug-07 06:30N 38°07' W 132°58'916.8
2017-Aug-07 06:00N 38°11' W 133°08'816.9
2017-Aug-07 05:30N 38°15' W 133°18'916.6
2017-Aug-07 04:56N 38°19' W 133°28'716.6
2017-Aug-07 04:30N 38°23' W 133°36'816.5
2017-Aug-07 04:00N 38°26' W 133°45'1016.8
2017-Aug-07 03:25N 38°31' W 133°57'716.5
2017-Aug-07 02:59N 38°34' W 134°05'1716.5
2017-Aug-07 01:56N 38°42' W 134°25'1416.7
2017-Aug-07 01:06N 38°49' W 134°40'216.5
2017-Aug-07 01:00N 38°50' W 134°42'816.8
2017-Aug-07 00:30N 38°54' W 134°51'816.7
2017-Aug-07 00:00N 38°58' W 135°01'1016.6
2017-Aug-06 23:25N 39°02' W 135°12'  

Dump ship's entire track history